createdAt,value
2022-10-02T00:04:15.936Z,9.25
2022-10-02T00:09:29.055Z,15.20
2022-10-02T00:14:33.832Z,15.35
2022-10-02T00:19:35.230Z,14.68
2022-10-02T00:24:36.614Z,12.27
2022-10-02T00:30:04.428Z,11.52
2022-10-02T00:35:24.526Z,16.73
2022-10-02T00:40:44.446Z,10.50
2022-10-02T00:45:51.834Z,12.83
2022-10-02T00:51:01.427Z,14.13
2022-10-02T00:56:08.700Z,12.80
2022-10-02T01:01:10.225Z,11.95
2022-10-02T01:06:11.909Z,15.05
2022-10-02T01:11:13.639Z,10.23
2022-10-02T01:16:15.394Z,9.13
2022-10-02T01:21:20.976Z,13.43
2022-10-02T01:26:22.504Z,13.88
2022-10-02T01:31:24.929Z,11.27
2022-10-02T01:36:27.163Z,11.13
2022-10-02T01:41:28.640Z,12.38
2022-10-02T01:46:45.139Z,13.73
2022-10-02T01:51:46.505Z,12.35
2022-10-02T01:56:54.134Z,11.77
2022-10-02T02:01:55.616Z,15.35
2022-10-02T02:07:06.512Z,16.00
2022-10-02T02:12:11.017Z,14.40
2022-10-02T02:17:14.574Z,11.75
2022-10-02T02:22:16.008Z,14.15
2022-10-02T02:27:19.700Z,14.63
2022-10-02T02:32:23.573Z,13.23
2022-10-02T02:37:27.848Z,14.75
2022-10-02T02:42:31.293Z,13.10
2022-10-02T02:47:42.228Z,12.35
2022-10-02T02:52:55.005Z,11.52
2022-10-02T02:58:02.428Z,6.55
2022-10-02T03:03:04.419Z,8.23
2022-10-02T03:08:12.584Z,5.32
2022-10-02T03:13:21.160Z,4.45
2022-10-02T03:18:45.606Z,4.78
2022-10-02T03:23:56.352Z,4.68
2022-10-02T03:29:00.054Z,5.28
2022-10-02T03:34:02.417Z,4.30
2022-10-02T03:39:25.343Z,5.28
2022-10-02T03:44:26.452Z,7.05
2022-10-02T03:49:27.976Z,5.57
2022-10-02T03:54:31.418Z,3.80
2022-10-02T03:59:40.008Z,4.65
2022-10-02T04:04:49.945Z,5.13
2022-10-02T04:10:01.032Z,3.67
2022-10-02T04:15:06.809Z,3.88
2022-10-02T04:20:15.036Z,4.80
2022-10-02T04:25:18.284Z,6.25
2022-10-02T04:30:20.495Z,9.82
2022-10-02T04:35:21.891Z,6.43
2022-10-02T04:40:26.207Z,3.85
2022-10-02T04:45:35.892Z,3.67
2022-10-02T04:50:43.364Z,4.73
2022-10-02T04:55:44.746Z,5.95
2022-10-02T05:00:49.187Z,6.88
2022-10-02T05:06:09.092Z,9.00
2022-10-02T05:11:10.516Z,6.63
2022-10-02T05:16:23.599Z,5.85
2022-10-02T05:21:43.501Z,5.88
2022-10-02T05:26:54.161Z,6.20
2022-10-02T05:31:55.554Z,9.48
2022-10-02T05:36:57.492Z,8.73
2022-10-02T05:42:07.901Z,6.93
2022-10-02T05:52:13.436Z,3.83
2022-10-02T05:57:24.498Z,4.15
2022-10-02T06:02:44.621Z,2.85
2022-10-02T06:07:47.566Z,1.63
2022-10-02T06:12:57.751Z,2.10
2022-10-02T06:18:07.204Z,2.88
2022-10-02T06:23:23.092Z,2.03
2022-10-02T06:28:43.144Z,2.88
2022-10-02T06:33:45.416Z,2.20
2022-10-02T06:38:57.612Z,6.25
2022-10-02T06:44:09.632Z,4.10
2022-10-02T06:49:29.488Z,3.40
2022-10-02T06:54:33.836Z,2.70
2022-10-02T06:59:42.932Z,5.15
2022-10-02T07:05:02.866Z,5.65
2022-10-02T07:10:04.250Z,6.83
2022-10-02T07:15:05.619Z,5.28
2022-10-02T07:20:45.755Z,4.13
2022-10-02T07:25:50.576Z,6.72
2022-10-02T07:31:11.932Z,4.93
2022-10-02T07:36:16.094Z,3.08
2022-10-02T07:41:36.190Z,5.13
2022-10-02T07:46:38.566Z,5.63
2022-10-02T07:51:53.715Z,5.60
2022-10-02T07:56:57.143Z,5.90
2022-10-02T08:01:58.977Z,4.07
2022-10-02T08:07:03.939Z,4.90
2022-10-02T08:12:11.184Z,4.65
2022-10-02T08:17:27.932Z,4.88
2022-10-02T08:22:48.151Z,4.28
2022-10-02T08:28:02.164Z,4.93
2022-10-02T08:33:13.844Z,5.82
2022-10-02T08:38:34.149Z,6.47
2022-10-02T08:43:50.470Z,4.05
2022-10-02T08:49:06.937Z,3.40
2022-10-02T08:54:47.421Z,6.18
2022-10-02T09:00:09.390Z,3.28
2022-10-02T09:05:26.090Z,5.30
2022-10-02T09:10:45.897Z,4.55
2022-10-02T09:15:51.274Z,4.80
2022-10-02T09:21:11.578Z,6.45
2022-10-02T09:26:34.596Z,3.80
2022-10-02T09:31:55.113Z,5.20
2022-10-02T09:36:57.461Z,6.47
2022-10-02T09:42:18.123Z,3.50
2022-10-02T09:52:33.260Z,2.08
2022-10-02T09:57:51.665Z,2.13
2022-10-02T10:03:08.463Z,2.60
2022-10-02T10:08:24.899Z,3.30
2022-10-02T10:13:45.013Z,2.05
2022-10-02T10:19:04.825Z,3.70
2022-10-02T10:24:15.591Z,3.47
2022-10-02T10:29:22.136Z,3.95
2022-10-02T10:34:37.901Z,3.35
2022-10-02T10:39:45.250Z,3.92
2022-10-02T10:44:49.876Z,1.88
2022-10-02T10:50:10.183Z,1.85
2022-10-02T10:55:16.806Z,1.73
2022-10-02T11:00:21.156Z,2.95
2022-10-02T11:05:25.528Z,6.47
2022-10-02T11:10:31.234Z,21.17
2022-10-02T11:15:59.888Z,17.15
2022-10-02T11:21:10.727Z,18.98
2022-10-02T11:26:23.960Z,14.98
2022-10-02T11:31:25.869Z,8.57
2022-10-02T11:36:46.581Z,7.43
2022-10-02T11:47:08.294Z,3.40
2022-10-02T11:52:36.019Z,3.35
2022-10-02T11:57:52.866Z,3.58
2022-10-02T12:12:52.158Z,4.70
2022-10-02T12:17:56.402Z,4.93
2022-10-02T12:23:19.795Z,6.85
2022-10-02T12:28:45.375Z,8.38
2022-10-02T12:33:58.379Z,3.55
2022-10-02T12:39:12.038Z,6.05
2022-10-02T12:44:13.476Z,8.38
2022-10-02T12:49:27.875Z,10.13
2022-10-02T12:54:38.539Z,9.45
2022-10-02T12:59:55.901Z,4.90
2022-10-02T13:05:09.274Z,4.57
2022-10-02T13:10:17.246Z,4.03
2022-10-02T13:15:37.483Z,4.90
2022-10-02T13:20:39.921Z,5.07
2022-10-02T13:25:52.477Z,8.25
2022-10-02T13:31:06.582Z,5.88
2022-10-02T13:36:17.209Z,5.35
2022-10-02T13:41:36.250Z,6.22
2022-10-02T13:46:56.597Z,5.88
2022-10-02T13:52:03.978Z,6.72
2022-10-02T13:57:14.589Z,6.68
2022-10-02T14:02:31.090Z,6.20
2022-10-02T14:07:41.852Z,7.07
2022-10-02T14:13:02.486Z,6.88
2022-10-02T14:23:20.297Z,6.60
2022-10-02T14:28:40.706Z,6.35
2022-10-02T14:33:45.775Z,8.70
2022-10-02T14:38:59.703Z,9.30
2022-10-02T14:44:10.774Z,13.65
2022-10-02T14:49:12.523Z,10.68
2022-10-02T14:54:13.994Z,9.82
2022-10-02T14:59:27.367Z,14.27
2022-10-02T15:04:43.865Z,12.43
2022-10-02T15:10:04.237Z,9.68
2022-10-02T15:15:41.718Z,10.48
2022-10-02T15:20:59.523Z,10.73
2022-10-02T15:26:04.482Z,9.43
2022-10-02T15:31:18.074Z,13.90
2022-10-02T15:36:19.602Z,12.32
2022-10-02T15:41:31.568Z,14.65
2022-10-02T15:46:40.564Z,13.02
2022-10-02T15:52:05.123Z,13.32
2022-10-02T15:57:08.134Z,12.45
2022-10-02T16:02:12.946Z,15.52
2022-10-02T16:07:23.578Z,14.85
2022-10-02T16:12:43.726Z,12.90
2022-10-02T16:18:04.143Z,13.50
2022-10-02T16:23:21.993Z,13.82
2022-10-02T16:28:26.546Z,11.35
2022-10-02T16:33:40.656Z,13.23
2022-10-02T16:38:47.107Z,10.02
2022-10-02T16:44:00.173Z,12.48
2022-10-02T16:49:16.724Z,11.55
2022-10-02T16:54:22.592Z,12.15
2022-10-02T16:59:43.579Z,12.93
2022-10-02T17:04:45.109Z,15.82
2022-10-02T17:09:52.124Z,15.77
2022-10-02T17:15:07.867Z,14.00
2022-10-02T17:20:18.001Z,18.05
2022-10-02T17:25:39.716Z,14.75
2022-10-02T17:30:59.905Z,17.60
2022-10-02T17:36:04.003Z,14.02
2022-10-02T17:41:11.801Z,13.90
2022-10-02T17:46:29.259Z,16.80
2022-10-02T17:51:52.315Z,15.95
2022-10-02T17:56:55.919Z,16.45
2022-10-02T18:01:57.450Z,16.05
2022-10-02T18:06:58.911Z,16.02
2022-10-02T18:12:03.812Z,16.77
2022-10-02T18:17:19.013Z,16.40
2022-10-02T18:22:33.297Z,14.23
2022-10-02T18:27:37.858Z,14.35
2022-10-02T18:32:51.691Z,13.07
2022-10-02T18:37:54.677Z,14.48
2022-10-02T18:43:08.095Z,15.20
2022-10-02T18:48:19.707Z,15.27
2022-10-02T18:53:36.615Z,14.05
2022-10-02T18:58:42.812Z,13.70
2022-10-02T19:03:47.148Z,14.82
2022-10-02T19:09:07.076Z,17.45
2022-10-02T19:14:27.390Z,20.93
2022-10-02T19:19:29.257Z,16.10
2022-10-02T19:24:33.380Z,18.85
2022-10-02T19:29:39.825Z,18.00
2022-10-02T19:34:42.321Z,18.48
2022-10-02T19:39:49.114Z,18.05
2022-10-02T19:44:56.726Z,17.98
2022-10-02T19:50:00.300Z,18.15
2022-10-02T19:55:16.223Z,16.80
2022-10-02T20:00:19.136Z,19.80
2022-10-02T20:05:24.829Z,20.55
2022-10-02T20:10:28.861Z,17.83
2022-10-02T20:16:04.312Z,17.48
2022-10-02T20:21:17.479Z,16.15
2022-10-02T20:26:21.597Z,19.13
2022-10-02T20:31:43.107Z,15.60
2022-10-02T20:36:51.423Z,16.40
2022-10-02T20:42:09.932Z,17.02
2022-10-02T20:47:11.393Z,15.75
2022-10-02T20:52:28.019Z,15.50
2022-10-02T20:58:03.436Z,17.40
2022-10-02T21:03:10.740Z,16.83
2022-10-02T21:08:18.574Z,17.35
2022-10-02T21:13:26.079Z,16.75
2022-10-02T21:18:42.966Z,17.00
2022-10-02T21:24:02.906Z,16.02
2022-10-02T21:29:10.556Z,16.23
2022-10-02T21:34:31.154Z,17.20
2022-10-02T21:39:32.672Z,14.10
2022-10-02T21:44:36.889Z,15.43
2022-10-02T21:49:38.324Z,14.15
2022-10-02T21:54:54.983Z,13.90
2022-10-02T21:59:56.414Z,14.75
2022-10-02T22:04:57.868Z,14.90
2022-10-02T22:09:59.413Z,13.15
2022-10-02T22:15:07.965Z,15.02
2022-10-02T22:20:12.582Z,14.60
2022-10-02T22:25:34.282Z,13.50
2022-10-02T22:30:40.560Z,13.75
2022-10-02T22:36:00.574Z,11.13
2022-10-02T22:41:07.009Z,12.33
2022-10-02T22:46:27.525Z,12.60
2022-10-02T22:51:43.051Z,11.07
2022-10-02T22:57:07.129Z,12.68
2022-10-02T23:02:14.826Z,12.13
2022-10-02T23:07:21.787Z,13.02
2022-10-02T23:12:47.691Z,13.10
2022-10-02T23:17:53.155Z,10.57
2022-10-02T23:22:58.584Z,12.50
2022-10-02T23:28:15.136Z,14.95
2022-10-02T23:33:27.375Z,12.55
2022-10-02T23:38:37.570Z,12.57
2022-10-02T23:43:43.320Z,12.15
2022-10-02T23:48:45.526Z,12.15
2022-10-02T23:54:02.153Z,11.30
2022-10-02T23:59:18.274Z,12.73
